createdAt,value
2017-04-24T00:00:47.914Z,7.1
2017-04-24T00:01:49.712Z,7.1
2017-04-24T00:02:52.003Z,7.1
2017-04-24T00:03:54.177Z,7
2017-04-24T00:04:56.015Z,7
2017-04-24T00:05:57.809Z,7
2017-04-24T00:06:59.619Z,7.1
2017-04-24T00:08:01.423Z,7.1
2017-04-24T00:09:03.225Z,7
2017-04-24T00:10:05.018Z,7.1
2017-04-24T00:11:06.816Z,7.1
2017-04-24T00:12:08.610Z,7.1
2017-04-24T00:13:10.466Z,7.1
2017-04-24T00:14:12.319Z,7.1
2017-04-24T00:15:14.144Z,7.1
2017-04-24T00:16:15.959Z,7.1
2017-04-24T00:17:17.764Z,7.1
2017-04-24T00:18:19.607Z,7.1
2017-04-24T00:19:21.513Z,7.1
2017-04-24T00:20:23.345Z,7.1
2017-04-24T00:21:25.147Z,7.1
2017-04-24T00:22:27.016Z,7.2
2017-04-24T00:23:28.816Z,7.1
2017-04-24T00:24:30.616Z,7.1
2017-04-24T00:25:32.612Z,7.2
2017-04-24T00:26:34.474Z,7.2
2017-04-24T00:27:36.627Z,7.2
2017-04-24T00:28:38.883Z,7.2
2017-04-24T00:29:40.697Z,7.2
2017-04-24T00:30:42.500Z,7.2
2017-04-24T00:31:44.331Z,7.2
2017-04-24T00:32:46.158Z,7.2
2017-04-24T00:33:47.953Z,7.2
2017-04-24T00:34:49.750Z,7.2
2017-04-24T00:35:51.545Z,7.2
2017-04-24T00:36:53.387Z,7.3
2017-04-24T00:37:55.578Z,7.3
2017-04-24T00:38:57.833Z,7.3
2017-04-24T00:39:59.636Z,7.3
2017-04-24T00:41:01.631Z,7.3
2017-04-24T00:42:03.442Z,7.3
2017-04-24T00:43:05.248Z,7.3
2017-04-24T00:44:07.040Z,7.3
2017-04-24T00:45:08.837Z,7.2
2017-04-24T00:46:10.997Z,7.2
2017-04-24T00:47:12.806Z,7.2
2017-04-24T00:48:14.605Z,7.2
2017-04-24T00:49:16.426Z,7.2
2017-04-24T00:50:18.266Z,7.2
2017-04-24T00:51:20.148Z,7.2
2017-04-24T00:52:21.954Z,7.2
2017-04-24T00:53:24.283Z,7.2
2017-04-24T00:54:27.293Z,7.2
2017-04-24T00:55:29.157Z,7.2
2017-04-24T00:56:30.962Z,7.2
2017-04-24T00:57:32.760Z,7.2
2017-04-24T00:58:34.549Z,7.2
2017-04-24T00:59:36.742Z,7.2
2017-04-24T01:00:38.534Z,7.2
2017-04-24T01:01:40.726Z,7.2
2017-04-24T01:02:42.521Z,7.2
2017-04-24T01:03:44.335Z,7.2
2017-04-24T01:04:46.187Z,7.2
2017-04-24T01:05:48.088Z,7.1
2017-04-24T01:06:50.276Z,7.1
2017-04-24T01:07:52.108Z,7.1
2017-04-24T01:08:53.904Z,7.1
2017-04-24T01:09:55.701Z,7.1
2017-04-24T01:10:57.859Z,7.1
2017-04-24T01:11:59.676Z,7.1
2017-04-24T01:13:01.850Z,7.1
2017-04-24T01:14:03.654Z,7.1
2017-04-24T01:15:05.450Z,7.1
2017-04-24T01:16:07.254Z,7
2017-04-24T01:17:09.061Z,7.1
2017-04-24T01:18:10.854Z,7
2017-04-24T01:19:12.654Z,7
2017-04-24T01:20:14.448Z,7
2017-04-24T01:21:16.252Z,7
2017-04-24T01:22:18.340Z,7
2017-04-24T01:23:20.673Z,7
2017-04-24T01:24:23.156Z,7
2017-04-24T01:25:25.007Z,7.1
2017-04-24T01:26:26.814Z,7
2017-04-24T01:27:28.611Z,7
2017-04-24T01:28:31.116Z,7
2017-04-24T01:29:33.701Z,7
2017-04-24T01:30:35.557Z,7
2017-04-24T01:31:37.345Z,7
2017-04-24T01:32:39.183Z,7
2017-04-24T01:33:41.325Z,7
2017-04-24T01:34:43.169Z,7
2017-04-24T01:35:44.985Z,7
2017-04-24T01:36:46.780Z,7
2017-04-24T01:37:48.578Z,7
2017-04-24T01:38:50.373Z,7
2017-04-24T01:39:52.163Z,7
2017-04-24T01:40:54.015Z,7
2017-04-24T01:41:55.903Z,7
2017-04-24T01:42:58.040Z,6.9
2017-04-24T01:44:00.403Z,6.9
2017-04-24T01:45:02.204Z,6.9
2017-04-24T01:46:04.046Z,6.9
2017-04-24T01:47:05.918Z,6.9
2017-04-24T01:48:08.051Z,6.9
2017-04-24T01:49:09.914Z,6.9
2017-04-24T01:50:11.716Z,6.9
2017-04-24T01:51:13.867Z,6.9
2017-04-24T01:52:15.669Z,6.9
2017-04-24T01:53:17.475Z,6.9
2017-04-24T01:54:19.270Z,6.9
2017-04-24T01:55:21.072Z,6.9
2017-04-24T01:56:22.865Z,7
2017-04-24T01:57:24.666Z,7
2017-04-24T01:58:26.461Z,7
2017-04-24T01:59:28.254Z,6.9
2017-04-24T02:00:30.047Z,6.9
2017-04-24T02:01:32.198Z,7
2017-04-24T02:02:34.023Z,7
2017-04-24T02:03:36.021Z,6.9
2017-04-24T02:04:37.826Z,6.9
2017-04-24T02:05:39.625Z,6.9
2017-04-24T02:06:41.417Z,6.9
2017-04-24T02:07:43.216Z,6.9
2017-04-24T02:08:45.013Z,6.9
2017-04-24T02:09:47.147Z,6.9
2017-04-24T02:10:48.989Z,7
2017-04-24T02:11:50.795Z,7
2017-04-24T02:12:52.949Z,7
2017-04-24T02:13:54.771Z,6.9
2017-04-24T02:14:57.244Z,7
2017-04-24T02:15:59.033Z,7
2017-04-24T02:17:00.881Z,6.9
2017-04-24T02:18:02.729Z,7
2017-04-24T02:19:04.537Z,6.9
2017-04-24T02:20:06.336Z,6.9
2017-04-24T02:21:08.511Z,6.9
2017-04-24T02:22:10.509Z,6.9
2017-04-24T02:23:12.324Z,6.9
2017-04-24T02:24:14.489Z,6.9
2017-04-24T02:25:16.308Z,7
2017-04-24T02:26:18.105Z,6.9
2017-04-24T02:27:19.916Z,6.9
2017-04-24T02:28:21.719Z,7
2017-04-24T02:29:23.882Z,7
2017-04-24T02:30:25.698Z,7
2017-04-24T02:31:27.854Z,6.9
2017-04-24T02:32:29.677Z,7
2017-04-24T02:33:31.475Z,6.9
2017-04-24T02:34:33.270Z,7
2017-04-24T02:35:35.466Z,7
2017-04-24T02:36:37.262Z,7
2017-04-24T02:37:39.063Z,7
2017-04-24T02:38:41.233Z,7
2017-04-24T02:39:43.411Z,7
2017-04-24T02:40:45.608Z,7
2017-04-24T02:41:47.740Z,7
2017-04-24T02:42:50.181Z,7
2017-04-24T02:43:52.865Z,7
2017-04-24T02:44:54.659Z,7
2017-04-24T02:45:56.461Z,7
2017-04-24T02:46:58.297Z,7
2017-04-24T02:48:00.126Z,7.1
2017-04-24T02:49:02.463Z,7
2017-04-24T02:50:04.319Z,7.1
2017-04-24T02:51:06.127Z,7.1
2017-04-24T02:52:08.310Z,7.1
2017-04-24T02:53:25.676Z,7.1
2017-04-24T02:54:27.595Z,7.1
2017-04-24T02:55:29.452Z,7.1
2017-04-24T02:56:31.289Z,7.1
2017-04-24T02:57:33.093Z,7.1
2017-04-24T02:58:35.235Z,7.1
2017-04-24T02:59:37.077Z,7.1
2017-04-24T03:00:38.875Z,7.1
2017-04-24T03:01:40.681Z,7.1
2017-04-24T03:02:42.488Z,7.1
2017-04-24T03:03:44.290Z,7.1
2017-04-24T03:04:46.089Z,7.1
2017-04-24T03:05:47.882Z,7.1
2017-04-24T03:06:49.677Z,7.1
2017-04-24T03:07:52.162Z,7.1
2017-04-24T03:08:54.044Z,7.1
2017-04-24T03:09:55.830Z,7.1
2017-04-24T03:10:57.643Z,7.1
2017-04-24T03:11:59.442Z,7.1
2017-04-24T03:13:01.239Z,7.1
2017-04-24T03:14:03.029Z,7.1
2017-04-24T03:15:04.827Z,7.2
2017-04-24T03:16:06.628Z,7.1
2017-04-24T03:17:08.468Z,7.1
2017-04-24T03:18:10.559Z,7.1
2017-04-24T03:19:12.741Z,7.1
2017-04-24T03:20:14.582Z,7.1
2017-04-24T03:21:16.713Z,7.1
2017-04-24T03:22:18.583Z,7.2
2017-04-24T03:23:20.720Z,7.2
2017-04-24T03:24:22.958Z,7.2
2017-04-24T03:25:25.128Z,7.2
2017-04-24T03:26:26.936Z,7.2
2017-04-24T03:27:28.731Z,7.2
2017-04-24T03:28:30.921Z,7.2
2017-04-24T03:29:32.718Z,7.3
2017-04-24T03:30:34.521Z,7.3
2017-04-24T03:31:36.326Z,7.3
2017-04-24T03:32:38.131Z,7.3
2017-04-24T03:33:40.667Z,7.3
2017-04-24T03:34:42.534Z,7.2
2017-04-24T03:35:44.328Z,7.2
2017-04-24T03:36:46.130Z,7.2
2017-04-24T03:37:48.610Z,7.2
2017-04-24T03:38:50.872Z,7.2
2017-04-24T03:39:52.667Z,7.2
2017-04-24T03:40:54.484Z,7.2
2017-04-24T03:41:56.291Z,7.2
2017-04-24T03:42:58.087Z,7.2
2017-04-24T03:43:59.884Z,7.2
2017-04-24T03:45:01.682Z,7.2
2017-04-24T03:46:03.492Z,7.2
2017-04-24T03:47:05.287Z,7.2
2017-04-24T03:48:07.115Z,7.2
2017-04-24T03:49:08.907Z,7.2
2017-04-24T03:50:10.709Z,7.2
2017-04-24T03:51:12.848Z,7.2
2017-04-24T03:52:14.646Z,7.2
2017-04-24T03:53:16.444Z,7.2
2017-04-24T03:54:18.281Z,7.2
2017-04-24T03:55:20.310Z,7.1
2017-04-24T03:56:22.315Z,7.1
2017-04-24T03:57:24.176Z,7.1
2017-04-24T03:58:25.991Z,7.1
2017-04-24T03:59:28.886Z,7.1
2017-04-24T04:00:31.028Z,7.1
2017-04-24T04:01:32.856Z,7.1
2017-04-24T04:02:34.655Z,7.1
2017-04-24T04:03:36.443Z,7
2017-04-24T04:04:38.577Z,7
2017-04-24T04:05:40.402Z,7
2017-04-24T04:06:42.197Z,7
2017-04-24T04:07:43.993Z,7
2017-04-24T04:08:46.123Z,7
2017-04-24T04:09:47.922Z,7
2017-04-24T04:10:49.726Z,7
2017-04-24T04:11:51.524Z,7
2017-04-24T04:12:53.337Z,7
2017-04-24T04:13:56.351Z,6.9
2017-04-24T04:14:58.878Z,6.9
2017-04-24T04:16:01.009Z,6.9
2017-04-24T04:17:02.877Z,6.9
2017-04-24T04:18:04.874Z,7
2017-04-24T04:19:06.684Z,7
2017-04-24T04:20:08.489Z,7
2017-04-24T04:21:10.332Z,7
2017-04-24T04:22:13.356Z,7
2017-04-24T04:23:15.215Z,7
2017-04-24T04:24:17.952Z,7
2017-04-24T04:25:19.805Z,7
2017-04-24T04:26:21.668Z,7
2017-04-24T04:27:23.813Z,7
2017-04-24T04:28:25.626Z,7
2017-04-24T04:29:27.428Z,7
2017-04-24T04:30:29.227Z,7
2017-04-24T04:31:31.339Z,7
2017-04-24T04:32:33.193Z,7
2017-04-24T04:33:35.030Z,7
2017-04-24T04:34:36.835Z,7
2017-04-24T04:35:38.995Z,7
2017-04-24T04:36:56.180Z,7
2017-04-24T04:37:58.675Z,7
2017-04-24T04:39:00.472Z,7
2017-04-24T04:40:02.263Z,7
2017-04-24T04:41:04.673Z,7
2017-04-24T04:42:06.775Z,7
2017-04-24T04:43:09.316Z,7
2017-04-24T04:44:11.320Z,7
2017-04-24T04:45:13.139Z,7
2017-04-24T04:46:14.960Z,7
2017-04-24T04:47:16.755Z,7
2017-04-24T04:48:18.909Z,7
2017-04-24T04:49:21.092Z,7
2017-04-24T04:50:22.965Z,7.1
2017-04-24T04:51:24.787Z,7.1
2017-04-24T04:52:26.580Z,7.1
2017-04-24T04:53:28.379Z,7.1
2017-04-24T04:54:30.174Z,7.1
2017-04-24T04:55:32.257Z,7.1
2017-04-24T04:56:34.130Z,7.1
2017-04-24T04:57:35.929Z,7.1
2017-04-24T04:58:38.094Z,7.1
2017-04-24T04:59:39.894Z,7.1
2017-04-24T05:00:41.692Z,7.1
2017-04-24T05:01:43.484Z,7.2
2017-04-24T05:02:45.684Z,7.2
2017-04-24T05:03:47.837Z,7.2
2017-04-24T05:04:50.031Z,7.2
2017-04-24T05:05:51.855Z,7.2
2017-04-24T05:06:53.659Z,7.2
2017-04-24T05:07:55.457Z,7.2
2017-04-24T05:08:57.255Z,7.1
2017-04-24T05:09:59.046Z,7.2
2017-04-24T05:11:01.136Z,7.2
2017-04-24T05:12:03.132Z,7.1
2017-04-24T05:13:05.048Z,7.1
2017-04-24T05:14:06.850Z,7.1
2017-04-24T05:15:08.985Z,7.1
2017-04-24T05:16:10.853Z,7.1
2017-04-24T05:17:12.648Z,7.2
2017-04-24T05:18:14.788Z,7.1
2017-04-24T05:19:16.585Z,7.2
2017-04-24T05:20:18.738Z,7.2
2017-04-24T05:21:20.541Z,7.2
2017-04-24T05:22:22.545Z,7.2
2017-04-24T05:23:24.542Z,7.2
2017-04-24T05:24:26.544Z,7.2
2017-04-24T05:25:28.344Z,7.2
2017-04-24T05:26:30.140Z,7.2
2017-04-24T05:27:31.947Z,7.2
2017-04-24T05:28:33.750Z,7.2
2017-04-24T05:29:36.079Z,7.3
2017-04-24T05:30:37.928Z,7.3
2017-04-24T05:31:39.734Z,7.3
2017-04-24T05:32:41.532Z,7.3
2017-04-24T05:33:43.330Z,7.4
2017-04-24T05:34:45.513Z,7.4
2017-04-24T05:35:47.385Z,7.4
2017-04-24T05:36:49.179Z,7.4
2017-04-24T05:37:50.983Z,7.5
2017-04-24T05:38:52.842Z,7.5
2017-04-24T05:39:54.737Z,7.5
2017-04-24T05:40:56.563Z,7.5
2017-04-24T05:41:58.559Z,7.5
2017-04-24T05:43:00.794Z,7.6
2017-04-24T05:44:02.829Z,7.6
2017-04-24T05:45:04.649Z,7.6
2017-04-24T05:46:06.451Z,7.6
2017-04-24T05:47:08.581Z,7.7
2017-04-24T05:48:10.720Z,7.7
2017-04-24T05:49:12.721Z,7.7
2017-04-24T05:50:14.921Z,7.7
2017-04-24T05:51:17.175Z,7.8
2017-04-24T05:52:18.975Z,7.8
2017-04-24T05:53:20.790Z,7.8
2017-04-24T05:54:22.609Z,7.8
2017-04-24T05:55:24.406Z,7.8
2017-04-24T05:56:26.480Z,7.8
2017-04-24T05:57:28.330Z,7.9
2017-04-24T05:58:30.144Z,7.9
2017-04-24T05:59:31.940Z,7.8
2017-04-24T06:00:33.737Z,7.9
2017-04-24T06:01:35.562Z,7.9
2017-04-24T06:02:37.383Z,7.9
2017-04-24T06:03:39.178Z,8
2017-04-24T06:04:40.976Z,8
2017-04-24T06:05:42.786Z,8
2017-04-24T06:06:44.635Z,8.1
2017-04-24T06:07:46.482Z,8.1
2017-04-24T06:08:48.624Z,8.1
2017-04-24T06:09:50.655Z,8.1
2017-04-24T06:10:52.494Z,8.1
2017-04-24T06:11:54.285Z,8.2
2017-04-24T06:12:56.097Z,8.2
2017-04-24T06:13:57.891Z,8.2
2017-04-24T06:14:59.694Z,8.3
2017-04-24T06:16:01.494Z,8.3
2017-04-24T06:17:03.308Z,8.3
2017-04-24T06:18:05.107Z,8.3
2017-04-24T06:19:06.899Z,8.4
2017-04-24T06:20:09.052Z,8.4
2017-04-24T06:21:10.848Z,8.4
2017-04-24T06:22:13.003Z,8.5
2017-04-24T06:23:14.798Z,8.5
2017-04-24T06:24:16.634Z,8.6
2017-04-24T06:25:18.492Z,8.6
2017-04-24T06:26:20.345Z,8.6
2017-04-24T06:27:22.188Z,8.6
2017-04-24T06:28:24.350Z,8.6
2017-04-24T06:29:26.550Z,8.6
2017-04-24T06:30:29.357Z,8.7
2017-04-24T06:31:31.720Z,8.7
2017-04-24T06:32:34.713Z,8.7
2017-04-24T06:33:37.145Z,8.7
2017-04-24T06:34:39.448Z,8.8
2017-04-24T06:35:42.252Z,8.8
2017-04-24T06:36:44.813Z,8.8
2017-04-24T06:37:47.560Z,8.9
2017-04-24T06:38:50.682Z,8.9
2017-04-24T06:39:53.388Z,8.9
2017-04-24T06:40:55.827Z,8.9
2017-04-24T06:41:57.948Z,8.9
2017-04-24T06:42:59.747Z,8.9
2017-04-24T06:44:01.555Z,8.9
2017-04-24T06:45:03.354Z,8.9
2017-04-24T06:46:05.185Z,8.9
2017-04-24T06:47:07.187Z,9
2017-04-24T06:48:09.032Z,9
2017-04-24T06:49:10.872Z,9
2017-04-24T06:50:13.393Z,9.1
2017-04-24T06:51:15.600Z,9.1
2017-04-24T06:52:17.445Z,9.2
2017-04-24T06:53:19.684Z,9.2
2017-04-24T06:54:21.491Z,9.2
2017-04-24T06:55:23.316Z,9.3
2017-04-24T06:56:25.453Z,9.4
2017-04-24T06:57:27.553Z,9.4
2017-04-24T06:58:29.556Z,9.4
2017-04-24T06:59:31.413Z,9.5
2017-04-24T07:00:33.230Z,9.5
2017-04-24T07:01:35.032Z,9.5
2017-04-24T07:02:36.832Z,9.5
2017-04-24T07:03:38.980Z,9.6
2017-04-24T07:04:40.794Z,9.6
2017-04-24T07:05:42.605Z,9.6
2017-04-24T07:06:44.402Z,9.6
2017-04-24T07:07:46.497Z,9.6
2017-04-24T07:08:48.908Z,9.6
2017-04-24T07:09:50.760Z,9.6
2017-04-24T07:10:52.560Z,9.6
2017-04-24T07:11:54.588Z,9.6
2017-04-24T07:12:56.392Z,9.7
2017-04-24T07:13:58.571Z,9.7
2017-04-24T07:15:00.370Z,9.7
2017-04-24T07:16:02.457Z,9.7
2017-04-24T07:17:04.454Z,9.7
2017-04-24T07:18:06.315Z,9.7
2017-04-24T07:19:08.206Z,9.7
2017-04-24T07:20:10.064Z,9.7
2017-04-24T07:21:11.903Z,9.7
2017-04-24T07:22:13.906Z,9.8
2017-04-24T07:23:15.710Z,9.8
2017-04-24T07:24:17.893Z,9.8
2017-04-24T07:25:20.093Z,9.8
2017-04-24T07:26:21.896Z,9.8
2017-04-24T07:27:23.696Z,9.9
2017-04-24T07:28:25.495Z,9.8
2017-04-24T07:29:27.291Z,9.9
2017-04-24T07:30:29.102Z,9.9
2017-04-24T07:31:31.244Z,9.9
2017-04-24T07:32:33.078Z,10
2017-04-24T07:33:34.868Z,10
2017-04-24T07:34:36.670Z,10
2017-04-24T07:35:38.469Z,10
2017-04-24T07:36:40.269Z,10
2017-04-24T07:37:42.398Z,10.1
2017-04-24T07:38:44.239Z,10.1
2017-04-24T07:39:46.101Z,10.1
2017-04-24T07:40:47.991Z,10.2
2017-04-24T07:41:50.716Z,10.2
2017-04-24T07:42:52.570Z,10.3
2017-04-24T07:43:54.359Z,10.3
2017-04-24T07:44:56.216Z,10.4
2017-04-24T07:45:58.019Z,10.5
2017-04-24T07:46:59.815Z,10.5
2017-04-24T07:48:01.759Z,10.6
2017-04-24T07:49:03.577Z,10.7
2017-04-24T07:50:05.380Z,10.7
2017-04-24T07:51:07.182Z,10.7
2017-04-24T07:52:09.282Z,10.8
2017-04-24T07:53:11.183Z,10.8
2017-04-24T07:54:13.018Z,10.9
2017-04-24T07:55:14.818Z,10.9
2017-04-24T07:56:16.711Z,11
2017-04-24T07:57:18.521Z,11
2017-04-24T07:58:20.328Z,11.1
2017-04-24T07:59:22.134Z,11.1
2017-04-24T08:00:24.230Z,11.1
2017-04-24T08:01:26.232Z,11.1
2017-04-24T08:02:28.089Z,11.1
2017-04-24T08:03:29.917Z,11.1
2017-04-24T08:04:31.720Z,11.1
2017-04-24T08:05:33.910Z,11.1
2017-04-24T08:06:35.713Z,11.1
2017-04-24T08:07:38.053Z,11.1
2017-04-24T08:08:39.898Z,11.1
2017-04-24T08:09:41.696Z,11.1
2017-04-24T08:10:43.495Z,11.1
2017-04-24T08:11:45.296Z,11.1
2017-04-24T08:12:47.097Z,11.1
2017-04-24T08:13:48.901Z,11
2017-04-24T08:14:50.709Z,11
2017-04-24T08:15:52.510Z,11
2017-04-24T08:16:54.309Z,11
2017-04-24T08:17:56.112Z,10.9
2017-04-24T08:18:57.965Z,10.9
2017-04-24T08:19:59.819Z,10.9
2017-04-24T08:21:01.618Z,10.8
2017-04-24T08:22:03.761Z,10.9
2017-04-24T08:23:05.579Z,10.8
2017-04-24T08:24:07.390Z,10.9
2017-04-24T08:25:09.193Z,10.9
2017-04-24T08:26:10.994Z,10.9
2017-04-24T08:27:12.803Z,10.9
2017-04-24T08:28:14.601Z,10.8
2017-04-24T08:29:16.400Z,10.8
2017-04-24T08:30:18.199Z,10.8
2017-04-24T08:31:20.006Z,10.8
2017-04-24T08:32:22.530Z,10.8
2017-04-24T08:33:24.343Z,10.8
2017-04-24T08:34:26.145Z,10.8
2017-04-24T08:35:27.978Z,10.8
2017-04-24T08:36:29.780Z,10.7
2017-04-24T08:37:31.581Z,10.7
2017-04-24T08:38:33.379Z,10.8
2017-04-24T08:39:35.859Z,10.8
2017-04-24T08:40:37.723Z,10.8
2017-04-24T08:41:39.526Z,10.8
2017-04-24T08:42:41.325Z,10.8
2017-04-24T08:43:43.131Z,10.9
2017-04-24T08:44:45.300Z,10.9
2017-04-24T08:45:47.100Z,10.9
2017-04-24T08:46:48.914Z,10.9
2017-04-24T08:47:50.719Z,11
2017-04-24T08:48:52.530Z,11
2017-04-24T08:49:54.329Z,11
2017-04-24T08:50:56.465Z,11.1
2017-04-24T08:51:58.263Z,11.1
2017-04-24T08:53:00.410Z,11.2
2017-04-24T08:54:02.230Z,11.2
2017-04-24T08:55:04.030Z,11.2
2017-04-24T08:56:05.838Z,11.3
2017-04-24T08:57:07.641Z,11.3
2017-04-24T08:58:09.443Z,11.3
2017-04-24T08:59:11.239Z,11.3
2017-04-24T09:00:13.042Z,11.2
2017-04-24T09:01:14.835Z,11.2
2017-04-24T09:02:16.859Z,11.3
2017-04-24T09:03:19.401Z,11.3
2017-04-24T09:04:21.234Z,11.3
2017-04-24T09:05:23.365Z,11.4
2017-04-24T09:06:25.549Z,11.4
2017-04-24T09:07:27.351Z,11.4
2017-04-24T09:08:29.154Z,11.5
2017-04-24T09:09:30.950Z,11.5
2017-04-24T09:10:32.753Z,11.6
2017-04-24T09:11:34.899Z,11.6
2017-04-24T09:12:36.905Z,11.7
2017-04-24T09:13:38.715Z,11.8
2017-04-24T09:14:40.969Z,11.9
2017-04-24T09:15:42.771Z,12
2017-04-24T09:16:44.624Z,12.1
2017-04-24T09:17:46.496Z,12.2
2017-04-24T09:18:48.650Z,12.3
2017-04-24T09:19:50.488Z,12.3
2017-04-24T09:20:52.608Z,12.4
2017-04-24T09:21:54.451Z,12.5
2017-04-24T09:22:56.256Z,12.5
2017-04-24T09:23:58.055Z,12.6
2017-04-24T09:24:59.877Z,12.7
2017-04-24T09:26:01.682Z,12.8
2017-04-24T09:27:03.491Z,12.8
2017-04-24T09:28:05.297Z,12.9
2017-04-24T09:29:07.103Z,12.9
2017-04-24T09:30:09.248Z,12.9
2017-04-24T09:31:11.077Z,12.9
2017-04-24T09:32:12.887Z,13
2017-04-24T09:33:14.694Z,13
2017-04-24T09:34:16.558Z,13
2017-04-24T09:35:18.407Z,13
2017-04-24T09:36:20.506Z,13.1
2017-04-24T09:37:22.531Z,13.1
2017-04-24T09:38:24.390Z,13.1
2017-04-24T09:39:26.491Z,13.1
2017-04-24T09:40:28.698Z,13
2017-04-24T09:41:30.701Z,13
2017-04-24T09:42:32.553Z,13
2017-04-24T09:43:34.933Z,12.9
2017-04-24T09:44:36.738Z,12.9
2017-04-24T09:45:38.560Z,12.9
2017-04-24T09:46:40.419Z,12.8
2017-04-24T09:47:42.266Z,12.8
2017-04-24T09:48:44.453Z,12.8
2017-04-24T09:49:46.308Z,12.8
2017-04-24T09:50:48.106Z,12.8
2017-04-24T09:51:49.912Z,12.8
2017-04-24T09:52:51.715Z,12.8
2017-04-24T09:53:53.518Z,12.8
2017-04-24T09:54:55.622Z,12.8
2017-04-24T09:55:57.626Z,12.8
2017-04-24T09:56:59.865Z,12.9
2017-04-24T09:58:01.667Z,13
2017-04-24T09:59:03.860Z,13
2017-04-24T10:00:05.659Z,13
2017-04-24T10:01:07.475Z,13
2017-04-24T10:02:09.327Z,13.1
2017-04-24T10:03:11.607Z,13.1
2017-04-24T10:04:13.451Z,13.1
2017-04-24T10:05:15.295Z,13.1
2017-04-24T10:06:17.093Z,13.1
2017-04-24T10:07:18.902Z,13.1
2017-04-24T10:08:20.709Z,13.2
2017-04-24T10:09:22.902Z,13.2
2017-04-24T10:10:24.700Z,13.3
2017-04-24T10:11:26.507Z,13.3
2017-04-24T10:12:28.425Z,13.3
2017-04-24T10:13:30.280Z,13.4
2017-04-24T10:14:32.124Z,13.5
2017-04-24T10:15:33.970Z,13.5
2017-04-24T10:16:35.778Z,13.6
2017-04-24T10:17:37.587Z,13.7
2017-04-24T10:18:39.386Z,13.8
2017-04-24T10:19:41.479Z,13.9
2017-04-24T10:20:43.342Z,13.9
2017-04-24T10:21:45.161Z,13.9
2017-04-24T10:22:47.301Z,13.9
2017-04-24T10:23:49.201Z,13.9
2017-04-24T10:24:51.348Z,13.9
2017-04-24T10:25:53.448Z,13.9
2017-04-24T10:26:55.315Z,13.9
2017-04-24T10:27:57.165Z,13.9
2017-04-24T10:28:58.970Z,13.9
2017-04-24T10:30:01.126Z,13.9
2017-04-24T10:31:02.929Z,14
2017-04-24T10:32:04.732Z,14
2017-04-24T10:33:06.538Z,14.1
2017-04-24T10:34:08.343Z,14.1
2017-04-24T10:35:10.147Z,14.2
2017-04-24T10:36:12.287Z,14.3
2017-04-24T10:37:14.115Z,14.5
2017-04-24T10:38:15.929Z,14.7
2017-04-24T10:39:18.070Z,14.8
2017-04-24T10:40:19.875Z,15
2017-04-24T10:41:21.679Z,15.1
2017-04-24T10:42:23.828Z,15.3
2017-04-24T10:43:25.643Z,15.5
2017-04-24T10:44:27.796Z,15.7
2017-04-24T10:45:29.627Z,15.9
2017-04-24T10:46:31.429Z,16
2017-04-24T10:47:33.246Z,16.2
2017-04-24T10:48:35.064Z,16.3
2017-04-24T10:49:36.880Z,16.4
2017-04-24T10:50:38.689Z,16.5
2017-04-24T10:51:40.554Z,16.6
2017-04-24T10:52:42.704Z,16.7
2017-04-24T10:53:44.851Z,16.8
2017-04-24T10:54:46.663Z,16.9
2017-04-24T10:55:48.469Z,17
2017-04-24T10:56:50.279Z,17.1
2017-04-24T10:57:52.742Z,17.2
2017-04-24T10:58:54.564Z,17.3
2017-04-24T10:59:56.367Z,17.4
2017-04-24T11:00:58.866Z,17.5
2017-04-24T11:02:00.723Z,17.6
2017-04-24T11:03:02.533Z,17.7
2017-04-24T11:04:04.682Z,17.7
2017-04-24T11:05:06.508Z,17.8
2017-04-24T11:06:08.315Z,17.8
2017-04-24T11:07:10.144Z,17.8
2017-04-24T11:08:11.958Z,17.8
2017-04-24T11:09:14.128Z,17.8
2017-04-24T11:10:16.279Z,17.8
2017-04-24T11:11:18.119Z,17.7
2017-04-24T11:12:20.269Z,17.7
2017-04-24T11:13:22.098Z,17.7
2017-04-24T11:14:24.258Z,17.6
2017-04-24T11:15:26.081Z,17.6
2017-04-24T11:16:28.177Z,17.6
2017-04-24T11:17:30.188Z,17.5
2017-04-24T11:18:32.037Z,17.4
2017-04-24T11:19:33.929Z,17.4
2017-04-24T11:20:36.071Z,17.3
2017-04-24T11:21:37.884Z,17.3
2017-04-24T11:22:39.693Z,17.3
2017-04-24T11:23:41.500Z,17.2
2017-04-24T11:24:43.310Z,17.2
2017-04-24T11:25:45.123Z,17.1
2017-04-24T11:26:47.496Z,17.1
2017-04-24T11:27:49.515Z,17.1
2017-04-24T11:28:52.008Z,17
2017-04-24T11:29:53.862Z,16.9
2017-04-24T11:30:56.237Z,16.8
2017-04-24T11:31:58.054Z,16.7
2017-04-24T11:33:00.138Z,16.6
2017-04-24T11:34:01.990Z,16.6
2017-04-24T11:35:03.856Z,16.5
2017-04-24T11:36:05.712Z,16.4
2017-04-24T11:37:07.538Z,16.4
2017-04-24T11:38:09.354Z,16.3
2017-04-24T11:39:11.527Z,16.2
2017-04-24T11:40:13.343Z,16.2
2017-04-24T11:41:15.485Z,16.1
2017-04-24T11:42:17.321Z,16.1
2017-04-24T11:43:19.129Z,16.1
2017-04-24T11:44:20.947Z,16.1
2017-04-24T11:45:22.857Z,16.1
2017-04-24T11:46:24.716Z,16.1
2017-04-24T11:47:26.523Z,16.1
2017-04-24T11:48:28.669Z,16.1
2017-04-24T11:49:30.490Z,16
2017-04-24T11:50:32.298Z,16
2017-04-24T11:51:34.108Z,15.9
2017-04-24T11:52:36.658Z,15.9
2017-04-24T11:53:38.470Z,15.8
2017-04-24T11:54:40.276Z,15.7
2017-04-24T11:55:42.086Z,15.6
2017-04-24T11:56:44.834Z,15.5
2017-04-24T11:57:47.345Z,15.5
2017-04-24T11:58:49.487Z,15.4
2017-04-24T11:59:51.576Z,15.3
2017-04-24T12:00:53.427Z,15.3
2017-04-24T12:01:55.235Z,15.3
2017-04-24T12:02:57.415Z,15.2
2017-04-24T12:03:59.227Z,15.2
2017-04-24T12:05:01.396Z,15.2
2017-04-24T12:06:04.493Z,15.2
2017-04-24T12:07:06.507Z,15.2
2017-04-24T12:08:08.517Z,15.2
2017-04-24T12:09:10.996Z,15.2
2017-04-24T12:10:12.856Z,15.1
2017-04-24T12:11:15.363Z,15.1
2017-04-24T12:12:17.701Z,15.1
2017-04-24T12:13:19.555Z,15.2
2017-04-24T12:14:21.702Z,15.1
2017-04-24T12:15:23.543Z,15.2
2017-04-24T12:16:25.358Z,15.2
2017-04-24T12:17:27.166Z,15.3
2017-04-24T12:18:28.975Z,15.4
2017-04-24T12:19:30.810Z,15.5
2017-04-24T12:20:33.033Z,15.5
2017-04-24T12:21:34.897Z,15.6
2017-04-24T12:22:36.746Z,15.7
2017-04-24T12:23:38.555Z,15.8
2017-04-24T12:24:40.361Z,15.9
2017-04-24T12:25:42.169Z,15.9
2017-04-24T12:26:43.982Z,15.9
2017-04-24T12:27:45.876Z,16
2017-04-24T12:28:48.108Z,16
2017-04-24T12:29:49.928Z,16
2017-04-24T12:30:51.729Z,16
2017-04-24T12:31:53.542Z,15.9
2017-04-24T12:32:56.042Z,15.9
2017-04-24T12:33:57.887Z,15.9
2017-04-24T12:34:59.732Z,15.9
2017-04-24T12:36:01.539Z,15.9
2017-04-24T12:37:03.754Z,15.9
2017-04-24T12:38:05.766Z,15.9
2017-04-24T12:39:08.238Z,15.9
2017-04-24T12:40:10.048Z,15.9
2017-04-24T12:41:11.851Z,15.9
2017-04-24T12:42:13.705Z,15.9
2017-04-24T12:43:15.602Z,15.9
2017-04-24T12:44:17.419Z,15.9
2017-04-24T12:45:19.221Z,15.9
2017-04-24T12:46:21.031Z,15.9
2017-04-24T12:47:22.841Z,15.9
2017-04-24T12:48:24.650Z,15.9
2017-04-24T12:49:26.805Z,15.9
2017-04-24T12:50:28.668Z,16
2017-04-24T12:51:30.553Z,16
2017-04-24T12:52:32.382Z,16
2017-04-24T12:53:34.190Z,16
2017-04-24T12:54:35.996Z,16
2017-04-24T12:55:37.801Z,16
2017-04-24T12:56:39.613Z,16
2017-04-24T12:57:41.420Z,15.9
2017-04-24T12:58:43.233Z,15.9
2017-04-24T12:59:45.269Z,15.9
2017-04-24T13:00:47.755Z,15.9
2017-04-24T13:01:49.903Z,15.9
2017-04-24T13:02:51.759Z,15.9
2017-04-24T13:03:53.571Z,15.9
2017-04-24T13:04:55.720Z,15.9
2017-04-24T13:05:57.828Z,15.9
2017-04-24T13:06:59.697Z,15.9
2017-04-24T13:08:01.521Z,15.9
2017-04-24T13:09:03.327Z,16
2017-04-24T13:10:05.133Z,16
2017-04-24T13:11:06.945Z,16.1
2017-04-24T13:12:08.782Z,16
2017-04-24T13:13:10.637Z,16.1
2017-04-24T13:14:12.489Z,16.1
2017-04-24T13:15:14.587Z,16.2
2017-04-24T13:16:16.638Z,16.2
2017-04-24T13:17:18.462Z,16.3
2017-04-24T13:18:20.275Z,16.3
2017-04-24T13:19:22.082Z,16.4
2017-04-24T13:20:23.891Z,16.4
2017-04-24T13:21:25.699Z,16.4
2017-04-24T13:22:27.581Z,16.4
2017-04-24T13:23:29.446Z,16.5
2017-04-24T13:24:31.249Z,16.5
2017-04-24T13:25:33.106Z,16.6
2017-04-24T13:26:35.246Z,16.6
2017-04-24T13:27:37.073Z,16.6
2017-04-24T13:28:38.883Z,16.6
2017-04-24T13:29:41.371Z,16.6
2017-04-24T13:30:43.179Z,16.6
2017-04-24T13:31:44.991Z,16.7
2017-04-24T13:32:46.799Z,16.7
2017-04-24T13:33:48.617Z,16.7
2017-04-24T13:34:50.829Z,16.7
2017-04-24T13:35:52.659Z,16.7
2017-04-24T13:36:54.521Z,16.8
2017-04-24T13:37:56.709Z,16.8
2017-04-24T13:38:59.224Z,16.7
2017-04-24T13:40:01.652Z,16.7
2017-04-24T13:41:03.515Z,16.6
2017-04-24T13:42:05.376Z,16.5
2017-04-24T13:43:07.187Z,16.4
2017-04-24T13:44:09.330Z,16.4
2017-04-24T13:45:11.132Z,16.4
2017-04-24T13:46:12.942Z,16.4
2017-04-24T13:47:14.751Z,16.3
2017-04-24T13:48:16.566Z,16.3
2017-04-24T13:49:18.451Z,16.3
2017-04-24T13:50:20.597Z,16.3
2017-04-24T13:51:22.603Z,16.2
2017-04-24T13:52:24.465Z,16.2
2017-04-24T13:53:26.933Z,16.1
2017-04-24T13:54:28.745Z,16
2017-04-24T13:55:30.887Z,16
2017-04-24T13:56:32.696Z,15.9
2017-04-24T13:57:34.505Z,15.9
2017-04-24T13:58:36.646Z,15.9
2017-04-24T13:59:38.460Z,15.9
2017-04-24T14:00:40.268Z,15.9
2017-04-24T14:01:42.086Z,15.9
2017-04-24T14:02:43.898Z,15.9
2017-04-24T14:03:45.702Z,15.9
2017-04-24T14:04:47.510Z,15.9
2017-04-24T14:05:49.377Z,15.9
2017-04-24T14:06:51.279Z,15.8
2017-04-24T14:07:53.152Z,15.8
2017-04-24T14:09:10.010Z,15.8
2017-04-24T14:10:11.812Z,15.8
2017-04-24T14:11:13.623Z,15.8